KGDB

Granite Falls Municipal / Lenzen-Roe-Fagen Memorial Field Airport

Granite Falls, Minnesota, USA
METAR KGDB 171815Z AUTO 30006KT 10SM CLR 09/M02 A3048 RMK AO2 T00921024
Observed Flight Rules
Oct-17 @ 18:15 UTC (6 minutes ago) Visual Flight Rules
Wind Visibility Clouds
300° at 6 knots 10 miles
  • Clear skies
Temperatures Readings
Current 9°C / 48°F
Dewpoint -2°C / 28°F
Humidity 46%
Altimeter 30.48" Hg
Pressure 1032 hPa
Elevation 319
METAR KGDB 171815Z AUTO 30006KT 10SM CLR 09/M02 A3048 RMK AO2 T00921024
Observed Flight Rules
Oct-17 @ 18:15 UTC
(6 minutes ago)
VFR
Wind Visibility
300° at 6 knots 10 miles
Clouds
  • Clear skies
Temperature Dewpoint
9°C / 48°F -2°C / 28°F
Humidity Altimeter Pressure
46% 30.48" Hg 1032 hPa